createdAt,value
2018-03-17T00:00:13.842Z,4.05
2018-03-17T00:02:40.405Z,4.15
2018-03-17T00:05:06.945Z,4.10
2018-03-17T00:07:33.509Z,3.35
2018-03-17T00:10:00.071Z,4.00
2018-03-17T00:12:26.609Z,3.40
2018-03-17T00:14:53.170Z,4.18
2018-03-17T00:17:19.734Z,3.85
2018-03-17T00:19:46.376Z,3.87
2018-03-17T00:22:12.946Z,3.67
2018-03-17T00:24:39.881Z,4.25
2018-03-17T00:27:06.540Z,4.85
2018-03-17T00:29:33.113Z,4.32
2018-03-17T00:32:00.044Z,4.03
2018-03-17T00:34:26.579Z,3.47
2018-03-17T00:36:53.150Z,3.40
2018-03-17T00:39:20.150Z,3.75
2018-03-17T00:41:46.694Z,3.62
2018-03-17T00:44:13.270Z,3.45
2018-03-17T00:46:39.837Z,3.85
2018-03-17T00:49:06.385Z,4.45
2018-03-17T00:51:32.953Z,4.30
2018-03-17T00:53:59.902Z,4.93
2018-03-17T00:56:26.853Z,4.80
2018-03-17T00:58:53.418Z,3.92
2018-03-17T01:01:20.025Z,3.33
2018-03-17T01:03:46.713Z,4.70
2018-03-17T01:06:13.662Z,3.33
2018-03-17T01:08:41.222Z,3.90
2018-03-17T01:11:14.754Z,4.07
2018-03-17T01:13:41.684Z,3.95
2018-03-17T01:16:08.242Z,3.83
2018-03-17T01:18:34.804Z,3.47
2018-03-17T01:21:01.741Z,4.35
2018-03-17T01:23:28.277Z,3.10
2018-03-17T01:25:54.849Z,3.62
2018-03-17T01:28:21.817Z,3.45
2018-03-17T01:30:48.725Z,3.62
2018-03-17T01:33:15.290Z,3.37
2018-03-17T01:35:41.866Z,2.80
2018-03-17T01:38:08.815Z,3.72
2018-03-17T01:40:35.402Z,3.00
2018-03-17T01:43:01.983Z,3.05
2018-03-17T01:45:28.509Z,2.83
2018-03-17T01:47:55.113Z,3.40
2018-03-17T01:50:22.124Z,2.83
2018-03-17T01:52:48.749Z,4.07
2018-03-17T01:55:15.318Z,3.08
2018-03-17T01:57:41.973Z,3.35
2018-03-17T02:00:08.622Z,3.78
2018-03-17T02:02:35.229Z,3.90
2018-03-17T02:05:01.898Z,3.30
2018-03-17T02:07:28.448Z,3.78
2018-03-17T02:09:55.038Z,3.03
2018-03-17T02:12:21.607Z,4.00
2018-03-17T02:14:48.139Z,2.95
2018-03-17T02:17:15.125Z,2.95
2018-03-17T02:19:41.816Z,3.15
2018-03-17T02:22:08.483Z,3.37
2018-03-17T02:24:35.053Z,3.53
2018-03-17T02:27:02.038Z,4.12
2018-03-17T02:29:28.571Z,3.12
2018-03-17T02:31:55.128Z,3.80
2018-03-17T02:34:21.718Z,3.10
2018-03-17T02:36:48.345Z,3.30
2018-03-17T02:39:14.981Z,2.83
2018-03-17T02:41:41.629Z,2.95
2018-03-17T02:44:08.162Z,2.87
2018-03-17T02:46:34.829Z,2.83
2018-03-17T02:49:01.391Z,2.30
2018-03-17T02:51:28.025Z,2.90
2018-03-17T02:53:54.613Z,2.75
2018-03-17T02:56:21.253Z,3.00
2018-03-17T02:58:47.873Z,2.30
2018-03-17T03:01:14.438Z,2.40
2018-03-17T03:03:41.015Z,2.45
2018-03-17T03:06:07.718Z,2.83
2018-03-17T03:08:34.396Z,2.20
2018-03-17T03:11:01.045Z,2.70
2018-03-17T03:13:27.574Z,2.35
2018-03-17T03:15:54.138Z,2.80
2018-03-17T03:18:20.701Z,2.58
2018-03-17T03:20:47.231Z,3.05
2018-03-17T03:23:13.789Z,2.90
2018-03-17T03:25:40.345Z,2.85
2018-03-17T03:28:06.916Z,2.90
2018-03-17T03:30:33.854Z,3.35
2018-03-17T03:33:00.421Z,2.58
2018-03-17T03:35:26.965Z,2.45
2018-03-17T03:37:53.902Z,2.80
2018-03-17T03:40:20.505Z,2.70
2018-03-17T03:42:47.042Z,2.25
2018-03-17T03:45:13.606Z,2.72
2018-03-17T03:47:40.179Z,3.28
2018-03-17T03:50:06.722Z,3.22
2018-03-17T03:52:33.290Z,3.10
2018-03-17T03:54:59.871Z,2.70
2018-03-17T03:57:26.393Z,2.47
2018-03-17T03:59:53.321Z,3.65
2018-03-17T04:02:19.916Z,3.95
2018-03-17T04:04:47.024Z,3.45
2018-03-17T04:07:13.589Z,3.47
2018-03-17T04:09:40.149Z,3.70
2018-03-17T04:12:07.057Z,2.60
2018-03-17T04:14:33.617Z,2.20
2018-03-17T04:17:00.182Z,2.53
2018-03-17T04:19:26.758Z,2.37
2018-03-17T04:21:53.738Z,2.35
2018-03-17T04:24:20.354Z,2.17
2018-03-17T04:26:47.254Z,3.10
2018-03-17T04:29:13.928Z,3.10
2018-03-17T04:31:40.492Z,3.22
2018-03-17T04:34:07.025Z,3.60
2018-03-17T04:36:33.585Z,2.92
2018-03-17T04:39:00.163Z,2.90
2018-03-17T04:41:27.068Z,3.12
2018-03-17T04:43:53.634Z,3.72
2018-03-17T04:46:20.210Z,2.85
2018-03-17T04:48:47.225Z,3.50
2018-03-17T04:51:13.788Z,4.07
2018-03-17T04:53:40.394Z,4.87
2018-03-17T04:56:06.925Z,5.68
2018-03-17T04:58:33.485Z,3.80
2018-03-17T05:01:00.063Z,3.70
2018-03-17T05:03:26.645Z,3.33
2018-03-17T05:05:53.573Z,3.60
2018-03-17T05:08:20.142Z,3.00
2018-03-17T05:10:46.670Z,3.55
2018-03-17T05:13:13.251Z,3.90
2018-03-17T05:15:40.268Z,3.50
2018-03-17T05:18:06.802Z,3.70
2018-03-17T05:20:33.390Z,4.57
2018-03-17T05:23:00.334Z,3.45
2018-03-17T05:25:26.872Z,3.75
2018-03-17T05:27:54.006Z,3.75
2018-03-17T05:30:20.666Z,3.00
2018-03-17T05:32:47.254Z,3.20
2018-03-17T05:35:14.282Z,3.08
2018-03-17T05:37:40.872Z,2.75
2018-03-17T05:40:07.834Z,3.62
2018-03-17T05:42:34.418Z,3.42
2018-03-17T05:45:01.059Z,3.28
2018-03-17T05:47:27.600Z,3.70
2018-03-17T05:49:54.785Z,3.60
2018-03-17T05:52:21.355Z,3.42
2018-03-17T05:54:48.089Z,2.92
2018-03-17T05:57:14.709Z,3.55
2018-03-17T05:59:41.286Z,3.75
2018-03-17T06:02:07.822Z,4.05
2018-03-17T06:04:34.378Z,3.08
2018-03-17T06:07:00.957Z,4.57
2018-03-17T06:09:27.498Z,13.85
2018-03-17T06:11:54.074Z,11.50
2018-03-17T06:14:20.669Z,13.57
2018-03-17T06:16:47.324Z,15.45
2018-03-17T06:19:13.889Z,7.40
2018-03-17T06:21:40.458Z,5.85
2018-03-17T06:24:07.475Z,5.00
2018-03-17T06:26:40.826Z,5.30
2018-03-17T06:29:07.758Z,4.95
2018-03-17T06:31:34.294Z,4.95
2018-03-17T06:34:00.897Z,5.85
2018-03-17T06:36:27.587Z,7.32
2018-03-17T06:38:54.514Z,6.78
2018-03-17T06:41:21.085Z,5.45
2018-03-17T06:43:47.666Z,4.85
2018-03-17T06:46:14.581Z,5.30
2018-03-17T06:48:41.141Z,5.65
2018-03-17T06:51:07.715Z,5.68
2018-03-17T06:53:34.238Z,11.88
2018-03-17T06:56:00.805Z,11.77
2018-03-17T06:58:27.429Z,12.65
2018-03-17T07:00:54.177Z,5.43
2018-03-17T07:03:20.793Z,5.80
2018-03-17T07:05:47.370Z,5.40
2018-03-17T07:08:13.998Z,6.35
2018-03-17T07:10:40.646Z,6.12
2018-03-17T07:13:07.213Z,7.40
2018-03-17T07:15:33.744Z,7.10
2018-03-17T07:18:00.301Z,6.35
2018-03-17T07:20:26.870Z,7.20
2018-03-17T07:22:53.403Z,7.32
2018-03-17T07:25:20.020Z,7.53
2018-03-17T07:27:46.934Z,7.30
2018-03-17T07:30:13.474Z,10.73
2018-03-17T07:32:40.074Z,11.75
2018-03-17T07:35:06.641Z,11.90
2018-03-17T07:37:33.173Z,13.85
2018-03-17T07:39:59.758Z,12.50
2018-03-17T07:42:26.313Z,13.00
2018-03-17T07:44:52.838Z,12.10
2018-03-17T07:47:19.410Z,14.10
2018-03-17T07:49:45.997Z,13.43
2018-03-17T07:52:12.526Z,13.25
2018-03-17T07:54:39.461Z,13.13
2018-03-17T07:57:06.035Z,15.63
2018-03-17T07:59:32.929Z,17.40
2018-03-17T08:01:59.493Z,15.57
2018-03-17T08:04:26.069Z,15.65
2018-03-17T08:06:52.597Z,16.20
2018-03-17T08:09:19.180Z,15.77
2018-03-17T08:11:45.742Z,15.82
2018-03-17T08:14:12.269Z,17.87
2018-03-17T08:16:39.481Z,18.83
2018-03-17T08:19:06.086Z,19.25
2018-03-17T08:21:32.986Z,21.35
2018-03-17T08:23:59.550Z,20.27
2018-03-17T08:26:26.114Z,20.70
2018-03-17T08:28:52.658Z,21.35
2018-03-17T08:31:19.236Z,22.65
2018-03-17T08:33:45.834Z,22.10
2018-03-17T08:36:12.390Z,24.15
2018-03-17T08:38:38.982Z,23.38
2018-03-17T08:41:05.572Z,23.92
2018-03-17T08:43:32.106Z,23.08
2018-03-17T08:45:58.725Z,22.65
2018-03-17T08:48:25.277Z,22.52
2018-03-17T08:50:51.822Z,22.20
2018-03-17T08:53:18.406Z,24.75
2018-03-17T08:55:44.966Z,23.23
2018-03-17T08:58:11.520Z,22.10
2018-03-17T09:00:38.082Z,23.23
2018-03-17T09:03:05.034Z,21.65
2018-03-17T09:05:31.565Z,24.42
2018-03-17T09:07:58.158Z,23.30
2018-03-17T09:10:24.757Z,22.80
2018-03-17T09:12:51.327Z,24.08
2018-03-17T09:15:17.998Z,23.02
2018-03-17T09:17:44.571Z,23.10
2018-03-17T09:20:11.121Z,20.17
2018-03-17T09:22:37.691Z,19.45
2018-03-17T09:25:04.274Z,19.75
2018-03-17T09:27:31.242Z,19.12
2018-03-17T09:29:58.177Z,19.12
2018-03-17T09:32:24.803Z,18.35
2018-03-17T09:34:51.354Z,17.70
2018-03-17T09:37:17.921Z,17.70
2018-03-17T09:39:44.489Z,19.60
2018-03-17T09:42:11.415Z,19.80
2018-03-17T09:44:38.261Z,19.48
2018-03-17T09:47:05.112Z,19.20
2018-03-17T09:49:31.906Z,19.80
2018-03-17T09:51:58.868Z,20.45
2018-03-17T09:54:25.806Z,22.50
2018-03-17T09:56:52.715Z,20.62
2018-03-17T09:59:19.282Z,20.95
2018-03-17T10:01:45.850Z,20.98
2018-03-17T10:04:12.386Z,20.23
2018-03-17T10:06:38.959Z,20.00
2018-03-17T10:09:05.902Z,19.10
2018-03-17T10:11:32.810Z,19.33
2018-03-17T10:13:59.390Z,19.00
2018-03-17T10:16:25.958Z,19.45
2018-03-17T10:18:52.897Z,20.48
2018-03-17T10:21:19.470Z,21.98
2018-03-17T10:23:46.462Z,20.70
2018-03-17T10:26:13.053Z,21.80
2018-03-17T10:28:39.631Z,21.17
2018-03-17T10:31:06.550Z,23.58
2018-03-17T10:33:33.189Z,21.27
2018-03-17T10:35:59.834Z,22.75
2018-03-17T10:38:26.416Z,22.62
2018-03-17T10:40:53.327Z,26.20
2018-03-17T10:43:19.941Z,26.98
2018-03-17T10:45:46.898Z,25.08
2018-03-17T10:48:13.866Z,26.95
2018-03-17T10:50:40.470Z,25.20
2018-03-17T10:53:07.038Z,25.58
2018-03-17T10:55:34.040Z,26.30
2018-03-17T10:58:00.812Z,26.45
2018-03-17T11:00:28.077Z,28.30
2018-03-17T11:02:55.446Z,26.20
2018-03-17T11:05:22.462Z,27.92
2018-03-17T11:07:49.142Z,27.23
2018-03-17T11:10:15.688Z,28.73
2018-03-17T11:12:42.262Z,29.00
2018-03-17T11:15:08.991Z,28.12
2018-03-17T11:17:35.571Z,28.38
2018-03-17T11:20:02.186Z,28.80
2018-03-17T11:22:28.764Z,29.00
2018-03-17T11:24:55.302Z,28.15
2018-03-17T11:27:21.861Z,28.65
2018-03-17T11:29:48.797Z,27.05
2018-03-17T11:32:15.341Z,27.00
2018-03-17T11:34:41.943Z,25.35
2018-03-17T11:37:08.517Z,23.12
2018-03-17T11:39:35.046Z,22.67
2018-03-17T11:42:01.652Z,21.83
2018-03-17T11:44:28.596Z,23.17
2018-03-17T11:46:55.234Z,22.45
2018-03-17T11:49:21.818Z,21.23
2018-03-17T11:51:48.773Z,21.05
2018-03-17T11:54:15.695Z,23.05
2018-03-17T11:56:42.399Z,23.33
2018-03-17T11:59:09.047Z,22.52
2018-03-17T12:01:35.595Z,22.23
2018-03-17T12:04:02.167Z,22.33
2018-03-17T12:06:28.735Z,22.62
2018-03-17T12:08:55.287Z,20.85
2018-03-17T12:11:21.867Z,20.73
2018-03-17T12:13:48.850Z,19.52
2018-03-17T12:16:15.383Z,20.00
2018-03-17T12:18:41.962Z,21.33
2018-03-17T12:21:08.529Z,21.08
2018-03-17T12:23:35.066Z,22.90
2018-03-17T12:26:01.676Z,21.12
2018-03-17T12:28:28.304Z,20.83
2018-03-17T12:30:54.834Z,20.15
2018-03-17T12:33:21.466Z,20.60
2018-03-17T12:35:48.021Z,21.20
2018-03-17T12:38:14.562Z,21.40
2018-03-17T12:40:41.121Z,20.20
2018-03-17T12:43:07.687Z,24.17
2018-03-17T12:45:34.594Z,20.90
2018-03-17T12:48:01.161Z,20.75
2018-03-17T12:50:27.783Z,20.05
2018-03-17T12:52:54.337Z,20.60
2018-03-17T12:55:20.909Z,19.80
2018-03-17T12:57:47.506Z,19.45
2018-03-17T13:00:14.037Z,19.98
2018-03-17T13:02:40.971Z,19.33
2018-03-17T13:05:07.558Z,17.77
2018-03-17T13:07:34.090Z,15.25
2018-03-17T13:10:01.053Z,16.37
2018-03-17T13:12:27.633Z,15.48
2018-03-17T13:14:54.162Z,16.75
2018-03-17T13:17:20.745Z,14.93
2018-03-17T13:19:47.327Z,14.45
2018-03-17T13:22:14.238Z,16.35
2018-03-17T13:24:40.821Z,15.15
2018-03-17T13:27:19.736Z,15.70
2018-03-17T13:29:46.730Z,15.02
2018-03-17T13:32:25.831Z,15.20
2018-03-17T13:34:52.445Z,15.02
2018-03-17T13:37:31.156Z,14.25
2018-03-17T13:39:58.150Z,15.10
2018-03-17T13:42:24.722Z,16.05
2018-03-17T13:44:51.250Z,12.57
2018-03-17T13:47:17.815Z,12.55
2018-03-17T13:49:44.394Z,13.15
2018-03-17T13:52:10.921Z,12.93
2018-03-17T13:54:37.489Z,12.98
2018-03-17T13:57:04.053Z,13.25
2018-03-17T13:59:30.622Z,12.23
2018-03-17T14:01:57.200Z,13.20
2018-03-17T14:04:23.781Z,11.50
2018-03-17T14:06:50.723Z,11.90
2018-03-17T14:09:17.670Z,11.12
2018-03-17T14:11:44.262Z,12.10
2018-03-17T14:14:10.819Z,12.95
2018-03-17T14:16:37.394Z,11.80
2018-03-17T14:19:03.985Z,12.65
2018-03-17T14:21:30.902Z,12.23
2018-03-17T14:23:57.476Z,14.68
2018-03-17T14:26:24.095Z,12.93
2018-03-17T14:28:50.637Z,13.52
2018-03-17T14:31:17.197Z,14.07
2018-03-17T14:33:43.830Z,14.25
2018-03-17T14:36:10.385Z,14.77
2018-03-17T14:38:36.954Z,16.35
2018-03-17T14:41:03.529Z,14.55
2018-03-17T14:43:30.442Z,14.20
2018-03-17T14:45:57.018Z,14.80
2018-03-17T14:48:23.598Z,16.35
2018-03-17T14:50:50.134Z,16.87
2018-03-17T14:53:17.073Z,14.75
2018-03-17T14:55:44.022Z,16.65
2018-03-17T14:58:10.558Z,15.77
2018-03-17T15:00:37.121Z,15.85
2018-03-17T15:03:03.776Z,16.37
2018-03-17T15:05:30.688Z,18.17
2018-03-17T15:07:57.250Z,18.50
2018-03-17T15:10:23.824Z,18.80
2018-03-17T15:12:50.730Z,16.25
2018-03-17T15:15:17.323Z,17.55
2018-03-17T15:17:44.266Z,16.70
2018-03-17T15:20:10.802Z,17.17
2018-03-17T15:22:37.422Z,17.60
2018-03-17T15:25:04.038Z,17.08
2018-03-17T15:27:30.942Z,17.55
2018-03-17T15:29:57.508Z,18.55
2018-03-17T15:32:24.065Z,18.85
2018-03-17T15:34:50.671Z,19.00
2018-03-17T15:37:17.255Z,18.20
2018-03-17T15:39:44.156Z,18.75
2018-03-17T15:42:10.685Z,18.90
2018-03-17T15:44:37.627Z,18.92
2018-03-17T15:47:04.226Z,18.52
2018-03-17T15:49:30.759Z,17.70
2018-03-17T15:51:57.339Z,18.55
2018-03-17T15:54:23.937Z,18.58
2018-03-17T15:56:50.574Z,16.87
2018-03-17T15:59:17.514Z,18.80
2018-03-17T16:01:44.132Z,18.85
2018-03-17T16:04:10.702Z,19.23
2018-03-17T16:06:37.315Z,21.40
2018-03-17T16:09:03.954Z,17.73
2018-03-17T16:11:30.515Z,17.27
2018-03-17T16:13:57.093Z,17.50
2018-03-17T16:16:23.673Z,17.52
2018-03-17T16:18:50.580Z,18.27
2018-03-17T16:21:17.154Z,17.58
2018-03-17T16:23:43.719Z,17.25
2018-03-17T16:26:10.725Z,18.60
2018-03-17T16:28:37.294Z,18.37
2018-03-17T16:31:03.878Z,17.35
2018-03-17T16:33:30.793Z,18.67
2018-03-17T16:35:57.407Z,17.27
2018-03-17T16:38:23.969Z,17.90
2018-03-17T16:40:50.522Z,18.02
2018-03-17T16:43:17.098Z,20.02
2018-03-17T16:45:43.690Z,19.12
2018-03-17T16:48:10.221Z,18.00
2018-03-17T16:50:37.154Z,18.80
2018-03-17T16:53:03.734Z,18.35
2018-03-17T16:55:30.321Z,18.50
2018-03-17T16:57:56.882Z,19.15
2018-03-17T17:00:23.442Z,19.17
2018-03-17T17:02:50.030Z,20.05
2018-03-17T17:05:16.602Z,19.45
2018-03-17T17:07:43.169Z,18.60
2018-03-17T17:10:09.718Z,17.77
2018-03-17T17:12:36.304Z,18.15
2018-03-17T17:15:03.349Z,17.10
2018-03-17T17:17:29.958Z,22.73
2018-03-17T17:19:56.545Z,18.25
2018-03-17T17:22:23.498Z,19.08
2018-03-17T17:24:50.050Z,19.23
2018-03-17T17:27:16.627Z,20.20
2018-03-17T17:29:43.219Z,18.42
2018-03-17T17:32:09.774Z,17.73
2018-03-17T17:34:36.346Z,26.52
2018-03-17T17:37:03.326Z,20.73
2018-03-17T17:39:29.858Z,21.17
2018-03-17T17:41:57.080Z,18.40
2018-03-17T17:44:23.698Z,19.30
2018-03-17T17:46:50.309Z,18.92
2018-03-17T17:49:16.865Z,19.90
2018-03-17T17:51:43.852Z,19.25
2018-03-17T17:54:10.414Z,20.90
2018-03-17T17:56:36.985Z,19.15
2018-03-17T17:59:03.564Z,19.73
2018-03-17T18:01:30.122Z,21.10
2018-03-17T18:03:56.702Z,20.62
2018-03-17T18:06:23.447Z,19.73
2018-03-17T18:08:49.988Z,19.77
2018-03-17T18:11:16.562Z,20.25
2018-03-17T18:13:43.153Z,18.90
2018-03-17T18:16:10.071Z,17.17
2018-03-17T18:18:36.642Z,17.90
2018-03-17T18:21:03.210Z,16.23
2018-03-17T18:23:29.770Z,16.42
2018-03-17T18:25:56.353Z,15.55
2018-03-17T18:28:22.921Z,14.93
2018-03-17T18:30:49.454Z,15.65
2018-03-17T18:33:16.089Z,16.77
2018-03-17T18:35:42.732Z,14.85
2018-03-17T18:38:09.270Z,15.93
2018-03-17T18:40:35.848Z,17.10
2018-03-17T18:43:02.410Z,16.87
2018-03-17T18:45:28.952Z,17.15
2018-03-17T18:47:55.569Z,17.98
2018-03-17T18:50:22.137Z,15.68
2018-03-17T18:52:48.684Z,15.23
2018-03-17T18:55:15.262Z,17.80
2018-03-17T18:57:42.216Z,18.70
2018-03-17T19:00:09.126Z,17.23
2018-03-17T19:02:35.713Z,16.65
2018-03-17T19:05:02.330Z,17.00
2018-03-17T19:07:28.874Z,17.10
2018-03-17T19:09:55.449Z,14.87
2018-03-17T19:12:24.093Z,15.90
2018-03-17T19:14:50.673Z,15.50
2018-03-17T19:17:17.242Z,16.50
2018-03-17T19:19:43.873Z,15.00
2018-03-17T19:22:10.437Z,16.45
2018-03-17T19:24:37.006Z,17.00
2018-03-17T19:27:03.949Z,17.35
2018-03-17T19:29:30.509Z,16.80
2018-03-17T19:31:57.454Z,15.98
2018-03-17T19:34:24.018Z,16.20
2018-03-17T19:36:51.032Z,15.25
2018-03-17T19:39:17.682Z,15.48
2018-03-17T19:41:44.331Z,15.38
2018-03-17T19:44:10.923Z,15.50
2018-03-17T19:46:37.938Z,15.32
2018-03-17T19:49:05.202Z,15.98
2018-03-17T19:51:31.738Z,14.73
2018-03-17T19:53:58.302Z,15.23
2018-03-17T19:56:25.270Z,14.50
2018-03-17T19:58:51.810Z,16.17
2018-03-17T20:01:18.418Z,14.87
2018-03-17T20:03:45.308Z,14.75
2018-03-17T20:06:11.854Z,16.20
2018-03-17T20:08:38.500Z,16.00
2018-03-17T20:11:05.074Z,16.02
2018-03-17T20:13:31.714Z,15.65
2018-03-17T20:15:58.289Z,17.23
2018-03-17T20:18:25.345Z,16.02
2018-03-17T20:20:52.256Z,17.48
2018-03-17T20:23:18.908Z,15.25
2018-03-17T20:25:45.493Z,16.55
2018-03-17T20:28:12.394Z,16.70
2018-03-17T20:30:38.957Z,16.83
2018-03-17T20:33:05.612Z,15.93
2018-03-17T20:35:32.221Z,16.20
2018-03-17T20:37:58.832Z,17.60
2018-03-17T20:40:25.398Z,15.95
2018-03-17T20:42:52.971Z,16.17
2018-03-17T20:45:20.538Z,16.67
2018-03-17T20:47:48.415Z,16.77
2018-03-17T20:50:15.411Z,17.87
2018-03-17T20:52:42.080Z,17.27
2018-03-17T20:55:08.645Z,17.80
2018-03-17T20:57:35.282Z,16.65
2018-03-17T21:00:02.029Z,18.67
2018-03-17T21:02:28.602Z,16.33
2018-03-17T21:04:55.225Z,17.40
2018-03-17T21:07:21.890Z,17.05
2018-03-17T21:09:48.624Z,18.23
2018-03-17T21:12:15.155Z,18.15
2018-03-17T21:14:41.721Z,17.37
2018-03-17T21:17:08.298Z,19.23
2018-03-17T21:19:35.221Z,19.27
2018-03-17T21:22:01.802Z,19.70
2018-03-17T21:24:28.773Z,19.52
2018-03-17T21:26:56.104Z,19.35
2018-03-17T21:29:22.670Z,20.55
2018-03-17T21:31:49.625Z,20.83
2018-03-17T21:34:16.534Z,19.37
2018-03-17T21:36:43.169Z,21.17
2018-03-17T21:39:09.821Z,21.02
2018-03-17T21:41:37.342Z,19.12
2018-03-17T21:44:03.909Z,20.25
2018-03-17T21:46:30.857Z,19.85
2018-03-17T21:48:57.883Z,21.17
2018-03-17T21:51:24.469Z,19.50
2018-03-17T21:53:51.118Z,20.77
2018-03-17T21:56:18.025Z,22.40
2018-03-17T21:58:44.616Z,20.90
2018-03-17T22:01:11.619Z,19.85
2018-03-17T22:03:38.179Z,21.05
2018-03-17T22:06:04.785Z,20.85
2018-03-17T22:08:31.725Z,21.75
2018-03-17T22:10:58.649Z,20.48
2018-03-17T22:13:25.270Z,22.00
2018-03-17T22:15:58.905Z,21.90
2018-03-17T22:18:25.533Z,21.48
2018-03-17T22:20:52.208Z,21.05
2018-03-17T22:23:18.763Z,19.80
2018-03-17T22:25:45.333Z,20.25
2018-03-17T22:28:12.359Z,20.02
2018-03-17T22:30:38.898Z,20.10
2018-03-17T22:33:05.461Z,20.17
2018-03-17T22:35:32.026Z,19.70
2018-03-17T22:37:58.623Z,18.70
2018-03-17T22:40:25.406Z,18.55
2018-03-17T22:42:52.374Z,17.75
2018-03-17T22:45:18.916Z,18.87
2018-03-17T22:47:45.499Z,19.40
2018-03-17T22:50:12.620Z,20.25
2018-03-17T22:52:39.369Z,20.27
2018-03-17T22:55:05.942Z,21.67
2018-03-17T22:57:32.523Z,19.80
2018-03-17T22:59:59.066Z,19.73
2018-03-17T23:02:25.642Z,19.75
2018-03-17T23:04:52.309Z,21.30
2018-03-17T23:07:18.903Z,20.52
2018-03-17T23:09:45.473Z,19.75
2018-03-17T23:12:12.045Z,21.92
2018-03-17T23:14:38.598Z,20.45
2018-03-17T23:17:05.190Z,19.35
2018-03-17T23:19:32.169Z,19.60
2018-03-17T23:21:58.709Z,20.83
2018-03-17T23:24:25.299Z,20.62
2018-03-17T23:26:51.947Z,21.48
2018-03-17T23:29:18.597Z,19.55
2018-03-17T23:31:45.187Z,21.90
2018-03-17T23:34:12.178Z,20.45
2018-03-17T23:36:38.849Z,21.17
2018-03-17T23:39:05.413Z,21.83
2018-03-17T23:41:32.121Z,21.40
2018-03-17T23:43:58.686Z,21.15
2018-03-17T23:46:25.292Z,20.05
2018-03-17T23:48:52.408Z,22.10
2018-03-17T23:51:19.011Z,20.27
2018-03-17T23:53:45.622Z,20.02
2018-03-17T23:56:12.326Z,21.50
2018-03-17T23:58:38.913Z,20.90
